createdAt,value
2023-02-02T00:01:01.588Z,100.00
2023-02-02T00:03:28.559Z,100.00
2023-02-02T00:05:55.255Z,100.00
2023-02-02T00:08:22.218Z,100.00
2023-02-02T00:10:50.781Z,100.00
2023-02-02T00:13:17.876Z,100.00
2023-02-02T00:15:44.790Z,100.00
2023-02-02T00:18:11.615Z,100.00
2023-02-02T00:20:38.463Z,100.00
2023-02-02T00:23:05.840Z,100.00
2023-02-02T00:25:32.891Z,100.00
2023-02-02T00:27:59.565Z,100.00
2023-02-02T00:30:26.454Z,100.00
2023-02-02T00:32:53.327Z,100.00
2023-02-02T00:35:20.551Z,100.00
2023-02-02T00:37:47.538Z,100.00
2023-02-02T00:40:14.545Z,100.00
2023-02-02T00:42:41.378Z,100.00
2023-02-02T00:45:15.899Z,100.00
2023-02-02T00:47:48.002Z,100.00
2023-02-02T00:50:22.013Z,100.00
2023-02-02T00:52:49.434Z,100.00
2023-02-02T00:55:17.362Z,100.00
2023-02-02T00:57:46.860Z,100.00
2023-02-02T01:00:18.992Z,100.00
2023-02-02T01:02:45.650Z,100.00
2023-02-02T01:05:13.111Z,100.00
2023-02-02T01:07:40.889Z,100.00
2023-02-02T01:10:11.324Z,100.00
2023-02-02T01:12:37.951Z,100.00
2023-02-02T01:15:05.053Z,100.00
2023-02-02T01:17:32.089Z,100.00
2023-02-02T01:20:00.199Z,100.00
2023-02-02T01:22:27.219Z,100.00
2023-02-02T01:24:53.845Z,100.00
2023-02-02T01:27:20.663Z,100.00
2023-02-02T01:29:47.326Z,100.00
2023-02-02T01:32:14.026Z,100.00
2023-02-02T01:34:41.945Z,100.00
2023-02-02T01:37:09.719Z,100.00
2023-02-02T01:39:36.763Z,100.00
2023-02-02T01:42:04.176Z,100.00
2023-02-02T01:44:52.798Z,100.00
2023-02-02T01:47:23.312Z,100.00
2023-02-02T01:49:50.450Z,100.00
2023-02-02T01:52:19.639Z,100.00
2023-02-02T01:54:53.112Z,100.00
2023-02-02T01:57:35.324Z,100.00
2023-02-02T02:00:05.543Z,100.00
2023-02-02T02:02:32.614Z,100.00
2023-02-02T02:05:01.830Z,100.00
2023-02-02T02:07:28.993Z,100.00
2023-02-02T02:09:55.903Z,100.00
2023-02-02T02:12:22.626Z,100.00
2023-02-02T02:15:09.860Z,100.00
2023-02-02T02:17:39.502Z,100.00
2023-02-02T02:20:30.885Z,100.00
2023-02-02T02:23:16.317Z,100.00
2023-02-02T02:26:10.666Z,100.00
2023-02-02T02:29:17.739Z,100.00
2023-02-02T02:32:10.375Z,100.00
2023-02-02T02:35:15.779Z,100.00
2023-02-02T02:37:51.642Z,100.00
2023-02-02T02:40:25.917Z,100.00
2023-02-02T02:42:58.267Z,100.00
2023-02-02T02:45:28.137Z,100.00
2023-02-02T02:47:56.384Z,100.00
2023-02-02T02:50:23.517Z,100.00
2023-02-02T02:53:02.857Z,100.00
2023-02-02T02:55:53.109Z,100.00
2023-02-02T02:58:41.636Z,100.00
2023-02-02T03:01:17.748Z,100.00
2023-02-02T03:03:53.685Z,100.00
2023-02-02T03:06:20.674Z,100.00
2023-02-02T03:09:05.319Z,100.00
2023-02-02T03:11:32.290Z,100.00
2023-02-02T03:13:59.026Z,100.00
2023-02-02T03:16:25.761Z,100.00
2023-02-02T03:18:52.600Z,100.00
2023-02-02T03:21:19.236Z,100.00
2023-02-02T03:23:45.926Z,100.00
2023-02-02T03:26:12.813Z,100.00
2023-02-02T03:28:40.296Z,100.00
2023-02-02T03:31:07.256Z,100.00
2023-02-02T03:33:36.752Z,100.00
2023-02-02T03:36:04.083Z,100.00
2023-02-02T03:38:31.099Z,100.00
2023-02-02T03:40:58.007Z,100.00
2023-02-02T03:43:25.367Z,100.00
2023-02-02T03:46:00.424Z,100.00
2023-02-02T03:48:27.547Z,100.00
2023-02-02T03:50:54.804Z,100.00
2023-02-02T03:53:22.198Z,100.00
2023-02-02T03:55:48.939Z,100.00
2023-02-02T03:58:15.698Z,100.00
2023-02-02T04:00:42.786Z,100.00
2023-02-02T04:03:10.605Z,100.00
2023-02-02T04:05:37.329Z,100.00
2023-02-02T04:08:08.507Z,100.00
2023-02-02T04:10:35.206Z,100.00
2023-02-02T04:13:02.952Z,100.00
2023-02-02T04:15:29.628Z,100.00
2023-02-02T04:17:56.324Z,100.00
2023-02-02T04:20:23.013Z,100.00
2023-02-02T04:22:49.782Z,100.00
2023-02-02T04:25:16.710Z,100.00
2023-02-02T04:27:43.405Z,100.00
2023-02-02T04:30:10.776Z,100.00
2023-02-02T04:32:37.478Z,100.00
2023-02-02T04:35:04.455Z,100.00
2023-02-02T04:37:32.529Z,100.00
2023-02-02T04:39:59.373Z,100.00
2023-02-02T04:42:26.129Z,100.00
2023-02-02T04:44:52.874Z,100.00
2023-02-02T04:47:19.603Z,100.00
2023-02-02T04:49:46.376Z,100.00
2023-02-02T04:52:13.458Z,100.00
2023-02-02T04:54:40.230Z,100.00
2023-02-02T04:57:06.895Z,100.00
2023-02-02T04:59:33.645Z,100.00
2023-02-02T05:02:01.131Z,100.00
2023-02-02T05:04:27.912Z,100.00
2023-02-02T05:06:54.667Z,100.00
2023-02-02T05:09:21.686Z,100.00
2023-02-02T05:11:48.429Z,100.00
2023-02-02T05:14:18.412Z,100.00
2023-02-02T05:16:45.438Z,100.00
2023-02-02T05:19:12.959Z,100.00
2023-02-02T05:21:39.706Z,100.00
2023-02-02T05:24:06.961Z,100.00
2023-02-02T05:26:33.741Z,100.00
2023-02-02T05:29:00.476Z,100.00
2023-02-02T05:31:27.448Z,100.00
2023-02-02T05:33:54.227Z,100.00
2023-02-02T05:36:20.982Z,100.00
2023-02-02T05:38:47.643Z,100.00
2023-02-02T05:41:14.352Z,100.00
2023-02-02T05:43:41.854Z,100.00
2023-02-02T05:46:08.634Z,100.00
2023-02-02T05:48:35.485Z,100.00
2023-02-02T05:51:24.069Z,100.00
2023-02-02T05:53:51.008Z,100.00
2023-02-02T05:56:17.642Z,100.00
2023-02-02T05:58:47.318Z,100.00
2023-02-02T06:01:14.873Z,100.00
2023-02-02T06:03:41.584Z,100.00
2023-02-02T06:06:09.404Z,100.00
2023-02-02T06:08:36.518Z,100.00
2023-02-02T06:11:14.370Z,100.00
2023-02-02T06:13:41.522Z,100.00
2023-02-02T06:16:08.587Z,100.00
2023-02-02T06:18:36.334Z,100.00
2023-02-02T06:21:06.482Z,100.00
2023-02-02T06:23:34.371Z,100.00
2023-02-02T06:26:03.473Z,100.00
2023-02-02T06:28:33.205Z,100.00
2023-02-02T06:31:11.242Z,100.00
2023-02-02T06:33:38.345Z,100.00
2023-02-02T06:36:07.648Z,100.00
2023-02-02T06:38:34.334Z,100.00
2023-02-02T06:41:02.512Z,100.00
2023-02-02T06:43:30.641Z,100.00
2023-02-02T06:45:58.152Z,100.00
2023-02-02T06:48:25.634Z,100.00
2023-02-02T06:50:53.258Z,100.00
2023-02-02T06:53:23.329Z,100.00
2023-02-02T06:55:54.753Z,100.00
2023-02-02T06:58:21.664Z,100.00
2023-02-02T07:00:48.452Z,100.00
2023-02-02T07:03:16.156Z,100.00
2023-02-02T07:05:42.966Z,100.00
2023-02-02T07:08:09.714Z,100.00
2023-02-02T07:11:14.414Z,100.00
2023-02-02T07:13:26.523Z,100.00
2023-02-02T07:15:54.703Z,82.14
2023-02-02T07:18:22.624Z,97.81
2023-02-02T07:20:49.569Z,82.74
2023-02-02T07:23:16.211Z,81.53
2023-02-02T07:25:43.955Z,76.31
2023-02-02T07:28:10.816Z,70.52
2023-02-02T07:30:37.545Z,67.17
2023-02-02T07:33:04.349Z,61.88
2023-02-02T07:35:31.206Z,59.39
2023-02-02T07:37:58.271Z,58.67
2023-02-02T07:40:24.966Z,55.86
2023-02-02T07:42:51.792Z,58.21
2023-02-02T07:45:27.692Z,54.70
2023-02-02T07:47:59.457Z,55.43
2023-02-02T07:50:28.008Z,52.04
2023-02-02T07:52:55.005Z,52.12
2023-02-02T07:55:22.022Z,52.50
2023-02-02T07:57:48.693Z,49.55
2023-02-02T08:00:17.108Z,49.13
2023-02-02T08:02:44.035Z,47.31
2023-02-02T08:05:10.701Z,47.28
2023-02-02T08:07:40.538Z,45.03
2023-02-02T08:10:07.680Z,47.59
2023-02-02T08:12:34.344Z,46.90
2023-02-02T08:15:01.218Z,47.61
2023-02-02T08:17:27.963Z,48.35
2023-02-02T08:19:54.694Z,46.24
2023-02-02T08:22:21.679Z,44.08
2023-02-02T08:24:48.397Z,44.55
2023-02-02T08:27:16.245Z,44.35
2023-02-02T08:29:43.473Z,44.79
2023-02-02T08:32:10.269Z,40.20
2023-02-02T08:34:37.131Z,37.97
2023-02-02T08:37:04.633Z,37.29
2023-02-02T08:39:31.336Z,36.13
2023-02-02T08:41:58.145Z,34.63
2023-02-02T08:44:27.496Z,35.64
2023-02-02T08:47:12.276Z,36.16
2023-02-02T08:49:39.103Z,35.60
2023-02-02T08:52:05.801Z,38.27
2023-02-02T08:54:32.755Z,36.74
2023-02-02T08:56:59.481Z,37.67
2023-02-02T08:59:26.409Z,36.55
2023-02-02T09:01:53.287Z,34.85
2023-02-02T09:04:19.970Z,36.61
2023-02-02T09:06:46.684Z,37.15
2023-02-02T09:09:15.893Z,37.50
2023-02-02T09:11:43.625Z,37.26
2023-02-02T09:14:13.318Z,36.97
2023-02-02T09:16:40.864Z,36.08
2023-02-02T09:19:08.065Z,36.84
2023-02-02T09:21:37.895Z,36.49
2023-02-02T09:24:14.115Z,36.77
2023-02-02T09:26:42.457Z,39.51
2023-02-02T09:29:16.489Z,38.87
2023-02-02T09:31:43.948Z,38.65
2023-02-02T09:34:12.831Z,39.67
2023-02-02T09:36:40.576Z,38.80
2023-02-02T09:39:08.488Z,37.81
2023-02-02T09:41:37.881Z,37.07
2023-02-02T09:44:23.996Z,39.19
2023-02-02T09:47:15.699Z,40.50
2023-02-02T09:50:00.690Z,39.93
2023-02-02T09:52:45.635Z,38.01
2023-02-02T09:55:37.165Z,37.35
2023-02-02T09:58:25.107Z,36.81
2023-02-02T10:01:07.316Z,36.66
2023-02-02T10:03:42.945Z,35.54
2023-02-02T10:06:38.947Z,36.45
2023-02-02T10:09:33.746Z,37.96
2023-02-02T10:12:12.252Z,36.58
2023-02-02T10:15:06.517Z,37.35
2023-02-02T10:17:57.315Z,37.09
2023-02-02T10:20:47.907Z,38.08
2023-02-02T10:23:36.599Z,36.99
2023-02-02T10:26:21.653Z,36.84
2023-02-02T10:28:54.659Z,37.80
2023-02-02T10:31:39.119Z,38.50
2023-02-02T10:34:15.473Z,38.91
2023-02-02T10:37:07.127Z,37.45
2023-02-02T10:40:11.602Z,37.28
2023-02-02T10:43:17.228Z,39.85
2023-02-02T10:45:44.651Z,40.05
2023-02-02T10:48:20.566Z,41.28
2023-02-02T10:50:58.068Z,40.33
2023-02-02T10:53:32.099Z,42.17
2023-02-02T10:56:06.023Z,41.49
2023-02-02T10:58:39.476Z,38.77
2023-02-02T11:01:11.643Z,39.86
2023-02-02T11:03:40.224Z,39.32
2023-02-02T11:06:27.087Z,38.91
2023-02-02T11:08:59.623Z,39.42
2023-02-02T11:11:39.789Z,39.01
2023-02-02T11:14:09.792Z,38.87
2023-02-02T11:16:43.678Z,38.58
2023-02-02T11:19:31.613Z,39.14
2023-02-02T11:22:01.498Z,38.75
2023-02-02T11:25:02.225Z,38.46
2023-02-02T11:27:40.400Z,39.14
2023-02-02T11:30:30.642Z,36.80
2023-02-02T11:32:57.650Z,37.80
2023-02-02T11:35:31.402Z,37.79
2023-02-02T11:38:10.286Z,38.12
2023-02-02T11:40:45.971Z,38.68
2023-02-02T11:43:51.158Z,40.82
2023-02-02T11:46:29.197Z,40.05
2023-02-02T11:49:02.302Z,38.15
2023-02-02T11:51:30.678Z,42.41
2023-02-02T11:54:06.533Z,41.59
2023-02-02T11:56:36.228Z,39.75
2023-02-02T11:59:04.330Z,42.85
2023-02-02T12:01:37.055Z,42.16
2023-02-02T12:04:24.041Z,41.73
2023-02-02T12:06:50.948Z,39.49
2023-02-02T12:09:21.592Z,42.14
2023-02-02T12:12:11.615Z,40.50
2023-02-02T12:15:03.431Z,40.05
2023-02-02T12:17:45.129Z,40.88
2023-02-02T12:20:30.516Z,42.48
2023-02-02T12:23:03.287Z,40.56
2023-02-02T12:26:18.050Z,43.38
2023-02-02T12:28:53.830Z,44.38
2023-02-02T12:31:47.909Z,42.07
2023-02-02T12:34:30.461Z,41.49
2023-02-02T12:37:10.371Z,43.92
2023-02-02T12:39:49.434Z,41.39
2023-02-02T12:42:31.259Z,39.86
2023-02-02T12:45:24.396Z,42.33
2023-02-02T12:48:04.077Z,42.04
2023-02-02T12:50:34.881Z,42.35
2023-02-02T12:53:17.183Z,40.65
2023-02-02T12:56:01.385Z,44.99
2023-02-02T12:58:38.400Z,46.05
2023-02-02T13:01:38.902Z,44.00
2023-02-02T13:04:40.328Z,43.94
2023-02-02T13:07:16.262Z,44.77
2023-02-02T13:10:03.112Z,45.93
2023-02-02T13:12:35.124Z,45.34
2023-02-02T13:15:07.957Z,45.77
2023-02-02T13:17:53.985Z,47.40
2023-02-02T13:20:49.437Z,48.60
2023-02-02T13:23:21.287Z,51.38
2023-02-02T13:25:53.747Z,51.46
2023-02-02T13:28:45.312Z,52.13
2023-02-02T13:31:19.874Z,52.39
2023-02-02T13:33:55.064Z,52.61
2023-02-02T13:36:29.737Z,53.94
2023-02-02T13:39:00.354Z,53.98
2023-02-02T13:41:28.457Z,55.05
2023-02-02T13:43:59.846Z,52.66
2023-02-02T13:46:57.350Z,57.08
2023-02-02T13:49:44.422Z,55.89
2023-02-02T13:52:46.349Z,52.61
2023-02-02T13:55:40.995Z,53.43
2023-02-02T13:58:13.728Z,54.16
2023-02-02T14:00:49.726Z,51.66
2023-02-02T14:03:40.052Z,48.42
2023-02-02T14:06:16.970Z,51.32
2023-02-02T14:08:56.531Z,53.36
2023-02-02T14:11:31.030Z,54.56
2023-02-02T14:14:25.136Z,53.01
2023-02-02T14:16:53.395Z,55.27
2023-02-02T14:19:31.387Z,56.96
2023-02-02T14:22:14.363Z,57.17
2023-02-02T14:24:50.481Z,58.89
2023-02-02T14:27:18.477Z,61.07
2023-02-02T14:29:46.767Z,63.54
2023-02-02T14:32:28.904Z,67.03
2023-02-02T14:35:20.482Z,67.17
2023-02-02T14:37:53.324Z,65.76
2023-02-02T14:40:52.129Z,73.01
2023-02-02T14:43:48.272Z,72.02
2023-02-02T14:46:15.075Z,74.37
2023-02-02T14:48:49.807Z,79.44
2023-02-02T14:51:22.711Z,84.74
2023-02-02T14:53:52.923Z,84.29
2023-02-02T14:56:22.025Z,84.76
2023-02-02T14:58:51.723Z,80.14
2023-02-02T15:01:23.075Z,78.11
2023-02-02T15:04:17.964Z,87.82
2023-02-02T15:06:44.991Z,82.78
2023-02-02T15:09:21.051Z,87.06
2023-02-02T15:12:03.048Z,85.27
2023-02-02T15:14:36.160Z,86.33
2023-02-02T15:17:16.507Z,92.92
2023-02-02T15:19:48.158Z,96.03
2023-02-02T15:22:20.918Z,81.64
2023-02-02T15:24:48.563Z,100.00
2023-02-02T15:27:22.097Z,100.00
2023-02-02T15:29:55.261Z,100.00
2023-02-02T15:32:28.060Z,100.00
2023-02-02T15:35:01.738Z,100.00
2023-02-02T15:37:40.288Z,100.00
2023-02-02T15:40:28.488Z,100.00
2023-02-02T15:43:09.364Z,100.00
2023-02-02T15:45:45.258Z,100.00
2023-02-02T15:48:30.000Z,100.00
2023-02-02T15:51:04.659Z,100.00
2023-02-02T15:53:49.442Z,100.00
2023-02-02T15:56:25.311Z,100.00
2023-02-02T15:58:55.055Z,100.00
2023-02-02T16:01:24.167Z,100.00
2023-02-02T16:04:03.263Z,100.00
2023-02-02T16:06:31.720Z,100.00
2023-02-02T16:08:58.995Z,100.00
2023-02-02T16:11:25.730Z,100.00
2023-02-02T16:14:06.973Z,100.00
2023-02-02T16:16:37.010Z,100.00
2023-02-02T16:19:11.029Z,100.00
2023-02-02T16:22:02.179Z,100.00
2023-02-02T16:24:32.988Z,100.00
2023-02-02T16:27:02.787Z,100.00
2023-02-02T16:29:29.960Z,100.00
2023-02-02T16:31:58.327Z,100.00
2023-02-02T16:34:46.777Z,100.00
2023-02-02T16:37:23.345Z,100.00
2023-02-02T16:39:50.127Z,100.00
2023-02-02T16:42:33.593Z,100.00
2023-02-02T16:45:01.468Z,100.00
2023-02-02T16:47:28.156Z,100.00
2023-02-02T16:50:10.378Z,100.00
2023-02-02T16:52:59.525Z,100.00
2023-02-02T16:55:47.493Z,100.00
2023-02-02T16:58:20.113Z,100.00
2023-02-02T17:01:16.596Z,100.00
2023-02-02T17:03:52.616Z,100.00
2023-02-02T17:06:42.086Z,100.00
2023-02-02T17:09:36.089Z,100.00
2023-02-02T17:12:33.744Z,100.00
2023-02-02T17:15:22.355Z,100.00
2023-02-02T17:17:49.760Z,100.00
2023-02-02T17:20:18.068Z,100.00
2023-02-02T17:22:51.261Z,100.00
2023-02-02T17:25:41.343Z,100.00
2023-02-02T17:28:12.292Z,100.00
2023-02-02T17:30:44.558Z,100.00
2023-02-02T17:33:18.157Z,100.00
2023-02-02T17:35:54.835Z,100.00
2023-02-02T17:38:23.696Z,100.00
2023-02-02T17:40:51.648Z,100.00
2023-02-02T17:43:18.580Z,100.00
2023-02-02T17:45:45.445Z,100.00
2023-02-02T17:48:13.488Z,100.00
2023-02-02T17:50:43.069Z,100.00
2023-02-02T17:53:11.988Z,100.00
2023-02-02T17:55:42.123Z,100.00
2023-02-02T17:58:11.153Z,100.00
2023-02-02T18:00:39.310Z,100.00
2023-02-02T18:03:08.952Z,100.00
2023-02-02T18:05:38.107Z,100.00
2023-02-02T18:08:05.048Z,100.00
2023-02-02T18:10:32.540Z,100.00
2023-02-02T18:12:59.241Z,100.00
2023-02-02T18:15:26.270Z,100.00
2023-02-02T18:17:53.280Z,100.00
2023-02-02T18:20:20.642Z,100.00
2023-02-02T18:22:51.139Z,100.00
2023-02-02T18:25:17.863Z,100.00
2023-02-02T18:27:45.211Z,100.00
2023-02-02T18:30:13.396Z,100.00
2023-02-02T18:32:41.643Z,100.00
2023-02-02T18:35:10.711Z,100.00
2023-02-02T18:37:39.295Z,100.00
2023-02-02T18:40:08.006Z,100.00
2023-02-02T18:42:36.300Z,100.00
2023-02-02T18:45:04.999Z,100.00
2023-02-02T18:47:32.999Z,100.00
2023-02-02T18:49:59.702Z,100.00
2023-02-02T18:52:26.516Z,100.00
2023-02-02T18:54:53.635Z,100.00
2023-02-02T18:57:20.446Z,100.00
2023-02-02T18:59:47.107Z,100.00
2023-02-02T19:02:15.849Z,100.00
2023-02-02T19:05:01.164Z,100.00
2023-02-02T19:07:46.778Z,100.00
2023-02-02T19:10:13.736Z,100.00
2023-02-02T19:12:40.520Z,100.00
2023-02-02T19:15:13.302Z,100.00
2023-02-02T19:17:40.403Z,100.00
2023-02-02T19:20:24.894Z,100.00
2023-02-02T19:22:56.384Z,100.00
2023-02-02T19:25:23.236Z,100.00
2023-02-02T19:27:50.026Z,100.00
2023-02-02T19:30:20.895Z,100.00
2023-02-02T19:32:48.269Z,100.00
2023-02-02T19:35:21.494Z,100.00
2023-02-02T19:37:49.504Z,100.00
2023-02-02T19:40:25.582Z,100.00
2023-02-02T19:43:00.133Z,100.00
2023-02-02T19:45:29.911Z,100.00
2023-02-02T19:47:58.107Z,100.00
2023-02-02T19:50:28.133Z,100.00
2023-02-02T19:52:56.272Z,100.00
2023-02-02T19:55:35.256Z,100.00
2023-02-02T19:58:13.882Z,100.00
2023-02-02T20:00:41.586Z,100.00
2023-02-02T20:03:16.064Z,100.00
2023-02-02T20:05:45.469Z,100.00
2023-02-02T20:08:33.209Z,100.00
2023-02-02T20:11:15.958Z,100.00
2023-02-02T20:13:47.748Z,100.00
2023-02-02T20:16:24.917Z,100.00
2023-02-02T20:18:54.439Z,100.00
2023-02-02T20:21:27.228Z,100.00
2023-02-02T20:23:54.120Z,100.00
2023-02-02T20:26:22.962Z,100.00
2023-02-02T20:28:51.679Z,100.00
2023-02-02T20:31:23.183Z,100.00
2023-02-02T20:33:55.756Z,100.00
2023-02-02T20:36:25.394Z,100.00
2023-02-02T20:38:52.092Z,100.00
2023-02-02T20:41:19.281Z,100.00
2023-02-02T20:43:46.541Z,100.00
2023-02-02T20:46:14.926Z,100.00
2023-02-02T20:48:42.121Z,100.00
2023-02-02T20:51:08.903Z,100.00
2023-02-02T20:53:35.855Z,100.00
2023-02-02T20:56:03.238Z,100.00
2023-02-02T20:58:30.389Z,100.00
2023-02-02T21:00:57.180Z,100.00
2023-02-02T21:03:24.045Z,100.00
2023-02-02T21:05:51.042Z,100.00
2023-02-02T21:08:17.807Z,100.00
2023-02-02T21:10:44.514Z,100.00
2023-02-02T21:13:11.442Z,100.00
2023-02-02T21:15:38.166Z,100.00
2023-02-02T21:18:04.916Z,100.00
2023-02-02T21:20:31.668Z,100.00
2023-02-02T21:22:58.405Z,100.00
2023-02-02T21:25:25.569Z,100.00
2023-02-02T21:27:52.504Z,100.00
2023-02-02T21:30:19.377Z,100.00
2023-02-02T21:32:46.246Z,100.00
2023-02-02T21:35:14.327Z,100.00
2023-02-02T21:37:44.176Z,100.00
2023-02-02T21:40:19.219Z,100.00
2023-02-02T21:42:49.612Z,100.00
2023-02-02T21:45:35.119Z,100.00
2023-02-02T21:48:19.693Z,100.00
2023-02-02T21:50:46.864Z,100.00
2023-02-02T21:53:16.753Z,100.00
2023-02-02T21:55:52.451Z,100.00
2023-02-02T21:58:25.603Z,100.00
2023-02-02T22:00:54.411Z,100.00
2023-02-02T22:03:37.972Z,100.00
2023-02-02T22:06:07.671Z,100.00
2023-02-02T22:08:37.221Z,100.00
2023-02-02T22:11:04.086Z,100.00
2023-02-02T22:13:35.033Z,100.00
2023-02-02T22:16:02.460Z,100.00
2023-02-02T22:18:29.518Z,100.00
2023-02-02T22:20:56.895Z,100.00
2023-02-02T22:23:29.877Z,100.00
2023-02-02T22:25:58.358Z,100.00
2023-02-02T22:28:29.574Z,100.00
2023-02-02T22:30:58.660Z,100.00
2023-02-02T22:33:27.116Z,100.00
2023-02-02T22:35:53.912Z,100.00
2023-02-02T22:38:23.181Z,100.00
2023-02-02T22:40:51.417Z,100.00
2023-02-02T22:43:20.067Z,100.00
2023-02-02T22:45:48.223Z,100.00
2023-02-02T22:48:15.525Z,100.00
2023-02-02T22:50:42.865Z,100.00
2023-02-02T22:53:09.971Z,100.00
2023-02-02T22:55:36.649Z,100.00
2023-02-02T22:58:03.478Z,100.00
2023-02-02T23:00:35.205Z,100.00
2023-02-02T23:03:02.028Z,100.00
2023-02-02T23:05:29.138Z,100.00
2023-02-02T23:07:55.983Z,100.00
2023-02-02T23:10:27.217Z,100.00
2023-02-02T23:12:58.495Z,100.00
2023-02-02T23:15:25.454Z,100.00
2023-02-02T23:17:52.959Z,100.00
2023-02-02T23:20:20.855Z,100.00
2023-02-02T23:22:47.572Z,100.00
2023-02-02T23:25:14.835Z,100.00
2023-02-02T23:27:42.101Z,100.00
2023-02-02T23:30:10.681Z,100.00
2023-02-02T23:32:37.392Z,100.00
2023-02-02T23:35:05.281Z,100.00
2023-02-02T23:37:32.030Z,100.00
2023-02-02T23:39:58.948Z,100.00
2023-02-02T23:42:25.929Z,100.00
2023-02-02T23:44:53.075Z,100.00
2023-02-02T23:47:20.206Z,100.00
2023-02-02T23:49:47.077Z,100.00
2023-02-02T23:52:14.427Z,100.00
2023-02-02T23:54:41.248Z,100.00
2023-02-02T23:57:08.189Z,100.00
2023-02-02T23:59:34.846Z,100.00
